Time;durP1;ratioP1;P1;durP2;ratioP2;P2;SDS_P1;SDS_P2;PMS_P1;PMS_P2;Temp;Humidity;BMP_temperature;BMP_pressure;BME280_temperature;BME280_humidity;BME280_pressure;Samples;Min_cycle;Max_cycle;Signal;HPM_P1;HPM_P2
2021/07/01 00:02:37;;;;;;;;;;;;;;;11.65;100.00;99874.34;5090976;28;19916;-80
2021/07/01 00:05:21;;;;;;;;;;;;;;;11.72;100.00;99885.50;5090628;28;19939;-79
2021/07/01 00:08:02;;;;;;;;;;;;;;;11.72;100.00;99879.88;5091102;28;19921;-80
2021/07/01 00:10:43;;;;;;;;;;;;;;;11.80;100.00;99881.44;5090899;28;20428;-80
2021/07/01 00:13:25;;;;;;;;;;;;;;;11.79;100.00;99879.06;5091009;28;20307;-79
2021/07/01 00:16:04;;;;;;;;;;;;;;;11.88;100.00;99888.59;5090961;28;19912;-80
2021/07/01 00:18:44;;;;;;;;;;;;;;;11.86;100.00;99885.38;5090911;28;19912;-82
2021/07/01 00:21:24;;;;;;;;;;;;;;;11.79;100.00;99885.47;5091028;28;19943;-82
2021/07/01 00:24:03;;;;;;;;;;;;;;;11.81;100.00;99888.66;5111496;27;19912;-79
2021/07/01 00:26:42;;;;;;;;;;;;;;;11.82;100.00;99884.63;5050892;28;19921;-79
2021/07/01 00:29:21;;;;;;;;;;;;;;;11.64;100.00;99880.38;5111453;27;19912;-79
2021/07/01 00:32:03;;;;;;;;;;;;;;;11.50;100.00;99870.03;5091174;28;19916;-79
2021/07/01 00:34:43;;;;;;;;;;;;;;;11.60;100.00;99883.16;5144853;27;19915;-79
2021/07/01 00:37:22;;;;;;;;;;;;;;;11.63;100.00;99889.97;5111323;27;20420;-82
2021/07/01 00:40:02;;;;;;;;;;;;;;;11.54;100.00;99890.38;5152744;27;20346;-80
2021/07/01 00:42:45;;;;;;;;;;;;;;;11.47;100.00;99884.84;5091038;28;19942;-80
2021/07/01 00:45:23;;;;;;;;;;;;;;;11.37;100.00;99880.13;5090990;28;19973;-80
2021/07/01 00:48:02;;;;;;;;;;;;;;;11.33;100.00;99884.94;5091145;28;20445;-80
2021/07/01 00:50:55;;;;;;;;;;;;;;;11.36;100.00;99875.72;5111152;27;19912;-80
2021/07/01 00:53:33;;;;;;;;;;;;;;;11.47;100.00;99884.84;5091019;28;19982;-80
2021/07/01 00:56:16;;;;;;;;;;;;;;;11.45;100.00;99878.09;5071463;28;19913;-79
2021/07/01 00:58:56;;;;;;;;;;;;;;;11.42;100.00;99879.69;5090938;28;19939;-79
2021/07/01 01:01:38;;;;;;;;;;;;;;;11.38;100.00;99881.72;5091017;28;20333;-82
2021/07/01 01:04:17;;;;;;;;;;;;;;;11.33;100.00;99878.56;5070694;28;19920;-82
2021/07/01 01:06:53;;;;;;;;;;;;;;;11.24;100.00;99875.41;5032843;27;2014612;-79
2021/07/01 01:10:01;;;;;;;;;;;;;;;11.19;100.00;99873.84;5073713;27;2016860;-79
2021/07/01 01:12:45;;;;;;;;;;;;;;;11.09;100.00;99874.69;5068462;27;2036104;-80
2021/07/01 01:15:25;;;;;;;;;;;;;;;10.90;100.00;99855.63;5069161;27;1996142;-79
2021/07/01 01:18:30;;;;;;;;;;;;;;;11.01;100.00;99858.34;5049143;27;2009636;-81
2021/07/01 01:21:13;;;;;;;;;;;;;;;10.98;100.00;99863.56;5045274;27;2007297;-82
2021/07/01 01:25:50;;;;;;;;;;;;;;;10.79;100.00;99850.06;5170971;27;20019;-79
2021/07/01 01:28:32;;;;;;;;;;;;;;;10.70;100.00;99841.34;5090739;28;19916;-81
2021/07/01 01:31:22;;;;;;;;;;;;;;;10.61;100.00;99846.56;5111102;27;20321;-80
2021/07/01 01:34:00;;;;;;;;;;;;;;;10.56;100.00;99834.97;5171392;27;20014;-79
2021/07/01 01:36:39;;;;;;;;;;;;;;;10.48;100.00;99834.22;5084021;27;2009620;-79
2021/07/01 01:39:22;;;;;;;;;;;;;;;10.37;100.00;99829.88;5138500;27;19961;-80
2021/07/01 01:42:16;;;;;;;;;;;;;;;10.22;100.00;99831.88;5055267;27;2482380;-79
2021/07/01 01:44:57;;;;;;;;;;;;;;;9.97;100.00;99825.53;5091006;28;19942;-82
2021/07/01 01:47:37;;;;;;;;;;;;;;;10.10;100.00;99823.94;5111326;27;19916;-79
2021/07/01 01:53:41;;;;;;;;;;;;;;;10.13;100.00;99825.16;5042080;27;2003220;-82
2021/07/01 01:56:21;;;;;;;;;;;;;;;10.17;100.00;99823.94;5138873;27;19916;-80
2021/07/01 01:58:58;;;;;;;;;;;;;;;10.17;100.00;99828.72;5042969;27;2020300;-80
2021/07/01 02:01:56;;;;;;;;;;;;;;;9.90;100.00;99828.34;5131854;27;19973;-80
2021/07/01 02:04:49;;;;;;;;;;;;;;;9.79;100.00;99824.78;5091269;28;19916;-80
2021/07/01 02:07:29;;;;;;;;;;;;;;;9.96;100.00;99825.94;5075522;27;1998540;-82
2021/07/01 02:10:23;;;;;;;;;;;;;;;10.02;100.00;99827.94;5111402;27;20324;-82
2021/07/01 02:13:03;;;;;;;;;;;;;;;9.87;100.00;99831.94;5091166;28;20253;-80
2021/07/01 02:15:46;;;;;;;;;;;;;;;9.70;100.00;99831.94;5090545;28;19970;-82
2021/07/01 02:18:25;;;;;;;;;;;;;;;9.68;100.00;99826.75;5111507;27;19912;-80
2021/07/01 02:21:09;;;;;;;;;;;;;;;9.71;100.00;99825.97;5091118;28;19912;-79
2021/07/01 02:23:48;;;;;;;;;;;;;;;9.48;100.00;99828.34;5111438;27;19928;-79
2021/07/01 02:26:28;;;;;;;;;;;;;;;9.60;100.00;99818.81;5111563;27;19973;-80
2021/07/01 02:29:10;;;;;;;;;;;;;;;9.66;100.00;99820.81;5090924;28;19943;-79
2021/07/01 02:32:30;;;;;;;;;;;;;;;9.73;100.00;99819.97;5070400;28;19917;-82
2021/07/01 02:35:08;;;;;;;;;;;;;;;9.69;100.00;99819.19;5111504;27;19916;-79
2021/07/01 02:38:21;;;;;;;;;;;;;;;9.74;100.00;99822.38;5090950;28;19916;-79
2021/07/01 02:41:08;;;;;;;;;;;;;;;9.49;100.00;99809.63;5111146;27;19977;-81
2021/07/01 02:43:53;;;;;;;;;;;;;;;9.21;100.00;99809.63;5103164;27;19916;-82
2021/07/01 02:46:50;;;;;;;;;;;;;;;9.18;100.00;99794.47;5074443;27;1991885;-82
2021/07/01 02:49:37;;;;;;;;;;;;;;;9.12;100.00;99801.63;5090894;28;21516;-81
2021/07/01 02:52:24;;;;;;;;;;;;;;;9.18;100.00;99800.03;5111537;27;20329;-79
2021/07/01 02:55:04;;;;;;;;;;;;;;;9.18;100.00;99799.25;5090975;28;19912;-82
2021/07/01 02:57:46;;;;;;;;;;;;;;;9.16;100.00;99803.22;5090999;28;19912;-79
2021/07/01 03:00:27;;;;;;;;;;;;;;;9.23;100.00;99804.41;5090935;28;20322;-82
2021/07/01 03:03:10;;;;;;;;;;;;;;;9.21;100.00;99809.63;5091036;28;19917;-82
2021/07/01 03:06:09;;;;;;;;;;;;;;;9.14;100.00;99805.63;5091129;28;20249;-82
2021/07/01 03:08:49;;;;;;;;;;;;;;;9.13;100.00;99797.66;5091135;28;19917;-79
2021/07/01 03:11:29;;;;;;;;;;;;;;;9.19;100.00;99807.22;5089537;28;19912;-79
2021/07/01 03:14:10;;;;;;;;;;;;;;;9.19;100.00;99805.22;5090658;28;19962;-82
2021/07/01 03:16:51;;;;;;;;;;;;;;;9.13;100.00;99803.25;5091186;28;19942;-79
2021/07/01 03:19:33;;;;;;;;;;;;;;;9.11;100.00;99789.69;5091164;28;20360;-82
2021/07/01 03:22:30;;;;;;;;;;;;;;;9.09;100.00;99803.22;5091151;28;20451;-79
2021/07/01 03:25:08;;;;;;;;;;;;;;;9.00;100.00;99790.84;5111420;27;19912;-82
2021/07/01 03:27:46;;;;;;;;;;;;;;;8.95;100.00;99797.63;5060105;27;1998473;-81
2021/07/01 03:30:25;;;;;;;;;;;;;;;8.83;100.00;99800.78;5091082;28;19974;-79
2021/07/01 03:33:07;;;;;;;;;;;;;;;8.76;100.00;99795.19;5091005;28;19981;-82
2021/07/01 03:35:48;;;;;;;;;;;;;;;8.73;100.00;99795.16;5091094;28;19913;-81
2021/07/01 03:38:48;;;;;;;;;;;;;;;8.73;100.00;99790.41;5091118;28;19917;-82
2021/07/01 03:41:46;;;;;;;;;;;;;;;8.67;100.00;99794.78;5090949;28;19938;-79
2021/07/01 03:44:25;;;;;;;;;;;;;;;8.53;100.00;99791.94;5111114;27;20355;-82
2021/07/01 03:47:06;;;;;;;;;;;;;;;8.54;100.00;99799.09;5090904;28;19986;-82
2021/07/01 03:49:47;;;;;;;;;;;;;;;8.66;100.00;99801.50;5090816;28;19912;-79
2021/07/01 03:52:46;;;;;;;;;;;;;;;8.57;100.00;99795.50;5090857;28;19917;-81
2021/07/01 03:55:25;;;;;;;;;;;;;;;8.54;100.00;99804.66;5131878;27;19916;-82
2021/07/01 03:58:03;;;;;;;;;;;;;;;8.54;100.00;99793.50;5040607;27;2023253;-82
2021/07/01 04:00:45;;;;;;;;;;;;;;;8.52;100.00;99795.91;5090759;28;19921;-82
2021/07/01 04:03:38;;;;;;;;;;;;;;;8.56;100.00;99791.16;5091219;28;19938;-82
2021/07/01 04:06:26;;;;;;;;;;;;;;;8.61;100.00;99801.91;5090977;28;19981;-79
2021/07/01 04:09:07;;;;;;;;;;;;;;;8.43;100.00;99781.56;5091036;28;19916;-82
2021/07/01 04:11:55;;;;;;;;;;;;;;;8.51;100.00;99794.28;5111194;27;19916;-79
2021/07/01 04:14:36;;;;;;;;;;;;;;;8.56;100.00;99791.16;5090904;28;19913;-82
2021/07/01 04:17:32;;;;;;;;;;;;;;;8.35;100.00;99785.50;5111366;27;19912;-81
2021/07/01 04:20:51;;;;;;;;;;;;;;;8.22;100.00;99778.69;5090764;28;20363;-81
2021/07/01 04:23:48;;;;;;;;;;;;;;;8.16;100.00;99783.00;5090850;28;19913;-82
2021/07/01 04:26:59;;;;;;;;;;;;;;;8.26;100.00;99787.84;5111114;27;19938;-81
2021/07/01 04:29:45;;;;;;;;;;;;;;;8.34;100.00;99789.47;5091156;28;19913;-82
2021/07/01 04:32:28;;;;;;;;;;;;;;;8.40;100.00;99782.34;5071739;28;19913;-82
2021/07/01 04:35:14;;;;;;;;;;;;;;;8.55;100.00;99792.34;5090866;28;19973;-82
2021/07/01 04:37:52;;;;;;;;;;;;;;;8.57;100.00;99787.16;5111152;27;19912;-82
2021/07/01 04:40:31;;;;;;;;;;;;;;;8.55;100.00;99783.19;5090405;28;19913;-79
2021/07/01 04:43:36;;;;;;;;;;;;;;;8.58;100.00;99777.63;5110600;27;19916;-82
2021/07/01 04:46:15;;;;;;;;;;;;;;;8.53;100.00;99783.56;5131257;27;19915;-82
2021/07/01 04:48:59;;;;;;;;;;;;;;;8.71;100.00;99786.41;5152373;27;19911;-79
2021/07/01 04:51:40;;;;;;;;;;;;;;;8.79;100.00;99786.03;5090151;28;19970;-82
2021/07/01 04:54:45;;;;;;;;;;;;;;;8.84;100.00;99785.66;5110868;27;20441;-82
2021/07/01 04:57:43;;;;;;;;;;;;;;;8.82;100.00;99776.91;5152711;27;19922;-82
2021/07/01 05:00:42;;;;;;;;;;;;;;;8.79;100.00;99782.44;5086177;28;19942;-82
2021/07/01 05:03:46;;;;;;;;;;;;;;;8.82;100.00;99776.09;5091431;28;20359;-82
2021/07/01 05:06:26;;;;;;;;;;;;;;;8.90;100.00;99778.50;5084450;28;19913;-81
2021/07/01 05:09:06;;;;;;;;;;;;;;;8.84;100.00;99774.53;5142856;27;20333;-77
2021/07/01 05:11:45;;;;;;;;;;;;;;;8.80;100.00;99768.13;5131604;27;19940;-79
2021/07/01 05:14:24;;;;;;;;;;;;;;;9.01;100.00;99773.72;5141240;27;19915;-80
2021/07/01 05:17:03;;;;;;;;;;;;;;;9.05;100.00;99762.59;5110937;27;19916;-80
2021/07/01 05:19:43;;;;;;;;;;;;;;;9.03;100.00;99763.00;5090730;28;19912;-79
2021/07/01 05:22:26;;;;;;;;;;;;;;;9.02;100.00;99764.19;5111195;27;20333;-77
2021/07/01 05:25:25;;;;;;;;;;;;;;;9.14;100.00;99755.44;5111040;27;19912;-86
2021/07/01 05:28:23;;;;;;;;;;;;;;;9.35;100.00;99760.22;5121190;27;19924;-82
2021/07/01 05:31:54;;;;;;;;;;;;;;;9.59;100.00;99758.63;5080040;28;19974;-80
2021/07/01 05:35:14;;;;;;;;;;;;;;;9.73;100.00;99758.59;5091070;28;19913;-80
2021/07/01 05:38:03;;;;;;;;;;;;;;;9.84;100.00;99753.78;5091005;28;19916;-80
2021/07/01 05:40:46;;;;;;;;;;;;;;;9.78;100.00;99745.03;5090671;28;20318;-82
2021/07/01 05:43:27;;;;;;;;;;;;;;;9.97;100.00;99729.81;5091150;28;19916;-80
2021/07/01 05:46:09;;;;;;;;;;;;;;;10.14;100.00;99740.16;5090911;28;19912;-82
2021/07/01 05:48:50;;;;;;;;;;;;;;;10.45;100.00;99744.84;5090812;28;19943;-79
2021/07/01 05:51:33;;;;;;;;;;;;;;;10.65;100.00;99746.72;5091032;28;19968;-82
2021/07/01 05:54:25;;;;;;;;;;;;;;;10.51;100.00;99737.63;5111002;27;20397;-79
2021/07/01 05:57:07;;;;;;;;;;;;;;;10.77;100.00;99739.84;5090835;28;19921;-79
2021/07/01 05:59:52;;;;;;;;;;;;;;;11.02;100.00;99737.69;5090326;28;19938;-79
2021/07/01 06:03:05;;;;;;;;;;;;;;;11.20;100.00;99741.16;5090633;28;19916;-79
2021/07/01 06:05:51;;;;;;;;;;;;;;;11.34;100.00;99726.25;5091038;28;19913;-79
2021/07/01 06:08:54;;;;;;;;;;;;;;;11.07;100.00;99714.91;5090945;28;19917;-82
2021/07/01 06:11:34;;;;;;;;;;;;;;;11.45;100.00;99713.75;5090922;28;19917;-80
2021/07/01 06:14:18;;;;;;;;;;;;;;;11.88;100.00;99725.34;5090783;28;19920;-80
2021/07/01 06:16:59;;;;;;;;;;;;;;;12.22;100.00;99724.16;5111775;27;20420;-80
2021/07/01 06:19:38;;;;;;;;;;;;;;;12.36;100.00;99715.56;5071425;28;20201;-79
2021/07/01 06:22:21;;;;;;;;;;;;;;;12.41;100.00;99703.91;5070422;28;19912;-79
2021/07/01 06:25:02;;;;;;;;;;;;;;;12.44;100.00;99705.06;5090983;28;19920;-80
2021/07/01 06:27:48;;;;;;;;;;;;;;;12.57;100.00;99701.28;5090481;28;19916;-80
2021/07/01 06:30:31;;;;;;;;;;;;;;;12.43;100.00;99684.66;5080054;27;2008734;-80
2021/07/01 06:33:13;;;;;;;;;;;;;;;12.47;100.00;99674.19;5090434;28;19958;-80
2021/07/01 06:35:55;;;;;;;;;;;;;;;12.12;100.00;99659.84;5085532;28;19921;-80
2021/07/01 06:39:10;;;;;;;;;;;;;;;11.81;100.00;99642.25;5059014;27;19967;-79
2021/07/01 06:42:11;;;;;;;;;;;;;;;11.87;100.00;99639.78;5082145;27;19921;-82
2021/07/01 06:45:12;;;;;;;;;;;;;;;11.96;100.00;99645.66;5090767;28;19920;-80
2021/07/01 06:48:25;;;;;;;;;;;;;;;12.00;100.00;99644.41;5085508;28;20436;-83
2021/07/01 06:51:23;;;;;;;;;;;;;;;12.42;100.00;99648.63;5064444;27;2000723;-83
2021/07/01 06:54:22;;;;;;;;;;;;;;;12.59;100.00;99648.41;5090309;28;20302;-81
2021/07/01 06:57:21;;;;;;;;;;;;;;;13.09;100.00;99647.63;5087920;28;19920;-80
2021/07/01 07:00:10;;;;;;;;;;;;;;;13.33;100.00;99640.81;5086289;28;19982;-81
2021/07/01 07:02:54;;;;;;;;;;;;;;;13.74;100.00;99627.16;5085255;28;19970;-81
2021/07/01 07:05:39;;;;;;;;;;;;;;;14.29;100.00;99613.19;5090399;28;19913;-82
2021/07/01 07:08:23;;;;;;;;;;;;;;;14.56;100.00;99568.78;5087959;28;19912;-81
2021/07/01 07:11:08;;;;;;;;;;;;;;;14.96;100.00;99533.63;5085381;27;19943;-81
2021/07/01 07:13:49;;;;;;;;;;;;;;;15.10;100.00;99493.84;5105941;27;19912;-81
2021/07/01 07:16:35;;;;;;;;;;;;;;;15.40;100.00;99472.94;5089776;28;19912;-81
2021/07/01 07:19:20;;;;;;;;;;;;;;;15.10;100.00;99445.97;5090701;28;20367;-81
2021/07/01 07:22:05;;;;;;;;;;;;;;;14.85;100.00;99426.19;5090796;27;19978;-81
2021/07/01 07:24:52;;;;;;;;;;;;;;;14.87;100.00;99400.44;5090866;28;19916;-81
2021/07/01 07:27:36;;;;;;;;;;;;;;;14.75;100.00;99387.91;5082498;28;19917;-81
2021/07/01 07:30:22;;;;;;;;;;;;;;;14.72;100.00;99383.19;5089914;28;20333;-82
2021/07/01 07:33:26;;;;;;;;;;;;;;;14.88;100.00;99365.44;5086319;28;19913;-82
2021/07/01 07:36:29;;;;;;;;;;;;;;;14.68;100.00;99343.09;5090908;28;19912;-82
2021/07/01 07:39:14;;;;;;;;;;;;;;;15.10;100.00;99327.00;5090772;28;19913;-82
2021/07/01 07:41:59;;;;;;;;;;;;;;;15.29;100.00;99321.19;5090905;27;19966;-81
2021/07/01 07:44:39;;;;;;;;;;;;;;;15.73;100.00;99317.41;5090666;28;19963;-81
2021/07/01 07:47:28;;;;;;;;;;;;;;;15.82;100.00;99311.06;5090920;28;20417;-83
2021/07/01 07:50:09;;;;;;;;;;;;;;;15.65;100.00;99299.13;5090404;28;19970;-77
2021/07/01 07:52:49;;;;;;;;;;;;;;;15.75;100.00;99281.09;5089728;28;19913;-77
2021/07/01 07:55:29;;;;;;;;;;;;;;;16.37;100.00;99275.75;5090237;28;19913;-77
2021/07/01 07:58:12;;;;;;;;;;;;;;;17.02;100.00;99260.41;5089875;28;19939;-77
2021/07/01 08:00:50;;;;;;;;;;;;;;;16.91;100.00;99253.56;5110611;27;19912;-77
2021/07/01 08:03:31;;;;;;;;;;;;;;;16.10;100.00;99251.69;5069706;28;20355;-78
2021/07/01 08:06:11;;;;;;;;;;;;;;;15.95;100.00;99250.63;5117630;27;19912;-77
2021/07/01 08:09:04;;;;;;;;;;;;;;;16.00;100.00;99252.88;5110112;27;19924;-77
2021/07/01 08:11:45;;;;;;;;;;;;;;;16.10;100.00;99234.00;5082102;28;20609;-77
2021/07/01 08:14:24;;;;;;;;;;;;;;;16.15;100.00;99241.88;5091264;27;19969;-77
2021/07/01 08:17:03;;;;;;;;;;;;;;;16.80;100.00;99236.25;5090597;28;19916;-78
2021/07/01 08:19:55;;;;;;;;;;;;;;;17.12;100.00;99241.47;5110907;27;19912;-77
2021/07/01 08:22:34;;;;;;;;;;;;;;;16.99;100.00;99224.63;5090260;27;20425;-76
2021/07/01 08:25:14;;;;;;;;;;;;;;;17.32;100.00;99222.09;5090534;28;19935;-76
2021/07/01 08:27:54;;;;;;;;;;;;;;;17.33;100.00;99223.66;5070437;28;19924;-77
2021/07/01 08:30:33;;;;;;;;;;;;;;;16.89;100.00;99220.19;5111059;27;19912;-77
2021/07/01 08:33:28;;;;;;;;;;;;;;;16.53;100.00;99216.34;5090473;28;19912;-77
2021/07/01 08:36:09;;;;;;;;;;;;;;;16.40;100.00;99216.41;5110788;27;19916;-77
2021/07/01 08:38:49;;;;;;;;;;;;;;;16.58;100.00;99219.38;5090663;28;19974;-77
2021/07/01 08:41:29;;;;;;;;;;;;;;;16.39;100.00;99225.31;5110025;27;20291;-77
2021/07/01 08:44:14;;;;;;;;;;;;;;;17.04;100.00;99234.53;5087217;28;19912;-77
2021/07/01 08:47:08;;;;;;;;;;;;;;;16.68;100.00;99231.47;5081915;28;19951;-77
2021/07/01 08:49:54;;;;;;;;;;;;;;;16.86;100.00;99237.22;5087072;28;19943;-77
2021/07/01 08:52:33;;;;;;;;;;;;;;;16.51;100.00;99224.50;5108694;27;19916;-77
2021/07/01 08:55:18;;;;;;;;;;;;;;;16.57;100.00;99226.25;5088765;28;19912;-79
2021/07/01 08:58:03;;;;;;;;;;;;;;;16.96;100.00;99227.59;5087975;28;19939;-79
2021/07/01 09:00:48;;;;;;;;;;;;;;;16.68;100.00;99223.03;5090744;28;19958;-79
2021/07/01 09:03:28;;;;;;;;;;;;;;;16.88;100.00;99220.63;5088450;28;19958;-79
2021/07/01 09:06:07;;;;;;;;;;;;;;;16.72;100.00;99218.81;5108946;27;19913;-79
2021/07/01 09:08:48;;;;;;;;;;;;;;;17.27;100.00;99217.06;5088516;28;19912;-79
2021/07/01 09:11:28;;;;;;;;;;;;;;;17.32;100.00;99211.59;5086198;28;19913;-79
2021/07/01 09:14:10;;;;;;;;;;;;;;;17.02;100.00;99203.16;5088554;28;19916;-79
2021/07/01 09:16:51;;;;;;;;;;;;;;;17.15;100.00;99201.00;5090669;28;20400;-79
2021/07/01 09:19:32;;;;;;;;;;;;;;;17.70;100.00;99200.75;5090619;28;19966;-79
2021/07/01 09:22:13;;;;;;;;;;;;;;;17.88;100.00;99202.81;5090626;28;19970;-79
2021/07/01 09:24:53;;;;;;;;;;;;;;;17.55;100.00;99196.16;5111180;27;19986;-78
2021/07/01 09:27:32;;;;;;;;;;;;;;;17.73;100.00;99202.63;5131544;27;19915;-79
2021/07/01 09:30:12;;;;;;;;;;;;;;;18.58;100.00;99194.03;5090800;28;19913;-79
2021/07/01 09:32:53;;;;;;;;;;;;;;;19.22;100.00;99191.78;5090424;28;20608;-79
2021/07/01 09:35:34;;;;;;;;;;;;;;;19.78;100.00;99176.84;5090880;28;19958;-79
2021/07/01 09:38:14;;;;;;;;;;;;;;;19.88;100.00;99181.97;5111258;27;20286;-79
2021/07/01 09:40:55;;;;;;;;;;;;;;;19.81;100.00;99175.88;5090497;28;19917;-79
2021/07/01 09:43:34;;;;;;;;;;;;;;;20.16;100.00;99179.72;5111181;27;19916;-79
2021/07/01 09:46:21;;;;;;;;;;;;;;;20.37;100.00;99184.28;5064490;27;2015438;-79
2021/07/01 09:49:03;;;;;;;;;;;;;;;20.51;100.00;99157.94;5090923;28;19942;-79
2021/07/01 09:51:43;;;;;;;;;;;;;;;20.69;100.00;99161.38;5090682;28;19924;-79
2021/07/01 09:54:28;;;;;;;;;;;;;;;20.04;100.00;99169.41;5090526;28;20360;-79
2021/07/01 09:57:17;;;;;;;;;;;;;;;20.61;100.00;99154.53;5090912;28;19916;-79
2021/07/01 09:59:58;;;;;;;;;;;;;;;20.62;100.00;99138.28;5090486;28;19966;-79
2021/07/01 10:03:01;;;;;;;;;;;;;;;20.02;100.00;99140.72;5111093;27;19912;-79
2021/07/01 10:05:40;;;;;;;;;;;;;;;19.78;100.00;99148.50;5091088;28;20325;-77
2021/07/01 10:08:20;;;;;;;;;;;;;;;19.59;100.00;99145.78;5090763;28;19982;-78
2021/07/01 10:11:05;;;;;;;;;;;;;;;19.31;100.00;99138.69;5090597;28;20414;-78
2021/07/01 10:14:12;;;;;;;;;;;;;;;19.43;100.00;99149.03;5085930;28;19924;-79
2021/07/01 10:16:52;;;;;;;;;;;;;;;19.73;100.00;99147.88;5088104;28;19946;-79
2021/07/01 10:19:37;;;;;;;;;;;;;;;19.62;100.00;99146.88;5089996;28;19912;-79
2021/07/01 10:22:22;;;;;;;;;;;;;;;19.32;100.00;99139.50;5090067;28;19958;-78
2021/07/01 10:25:04;;;;;;;;;;;;;;;18.99;100.00;99145.13;5088489;28;19917;-79
2021/07/01 10:27:49;;;;;;;;;;;;;;;18.85;100.00;99143.00;5090124;28;20344;-79
2021/07/01 10:30:34;;;;;;;;;;;;;;;18.78;100.00;99151.03;5089823;28;19961;-78
2021/07/01 10:33:22;;;;;;;;;;;;;;;18.33;100.00;99137.75;5088225;28;19924;-78
2021/07/01 10:36:04;;;;;;;;;;;;;;;18.59;100.00;99141.81;5090279;28;19921;-79
2021/07/01 10:38:50;;;;;;;;;;;;;;;18.44;100.00;99149.41;5090041;28;19916;-78
2021/07/01 10:41:35;;;;;;;;;;;;;;;18.55;100.00;99149.69;5089906;28;19920;-78
2021/07/01 10:44:21;;;;;;;;;;;;;;;18.40;100.00;99131.03;5082888;28;19946;-78
2021/07/01 10:47:25;;;;;;;;;;;;;;;18.60;100.00;99142.59;5089773;28;19938;-78
2021/07/01 10:50:22;;;;;;;;;;;;;;;18.80;100.00;99140.00;5089776;28;19916;-79
2021/07/01 10:53:00;;;;;;;;;;;;;;;19.08;100.00;99130.94;5090420;28;19913;-81
2021/07/01 10:56:07;;;;;;;;;;;;;;;19.01;100.00;99134.09;5090015;28;19916;-81
2021/07/01 10:58:53;;;;;;;;;;;;;;;19.08;100.00;99130.16;5078881;28;19924;-77
2021/07/01 11:01:36;;;;;;;;;;;;;;;19.09;100.00;99131.72;5089304;28;19921;-78
2021/07/01 11:04:22;;;;;;;;;;;;;;;18.92;100.00;99136.97;5081712;28;19958;-75
2021/07/01 11:07:03;;;;;;;;;;;;;;;18.90;100.00;99114.03;5095288;27;20367;-75
2021/07/01 11:09:47;;;;;;;;;;;;;;;19.26;100.00;99119.53;5068625;28;19917;-75
2021/07/01 11:12:27;;;;;;;;;;;;;;;19.43;100.00;99123.50;5089050;27;19938;-75
2021/07/01 11:18:53;;;;;;;;;;;;;;;19.15;100.00;99141.91;5116340;27;19999;-75
2021/07/01 11:21:33;;;;;;;;;;;;;;;19.26;100.00;99130.06;5089737;28;20371;-75
2021/07/01 11:24:14;;;;;;;;;;;;;;;19.21;100.00;99127.88;5110180;27;19912;-75
2021/07/01 11:26:54;;;;;;;;;;;;;;;19.09;100.00;99131.72;5110235;27;19916;-78
2021/07/01 11:29:40;;;;;;;;;;;;;;;19.23;100.00;99148.81;5089732;28;19939;-75
2021/07/01 11:32:24;;;;;;;;;;;;;;;19.39;100.00;99128.59;5110242;27;21018;-75
2021/07/01 11:35:03;;;;;;;;;;;;;;;19.56;100.00;99135.41;5090238;28;19958;-75
2021/07/01 11:37:44;;;;;;;;;;;;;;;19.11;100.00;99130.00;5089825;28;20345;-75
2021/07/01 11:40:22;;;;;;;;;;;;;;;19.18;100.00;99135.28;5110172;27;19912;-78
2021/07/01 11:43:12;;;;;;;;;;;;;;;19.16;100.00;99120.06;5034824;27;1994911;-78
2021/07/01 11:45:52;;;;;;;;;;;;;;;19.47;100.00;99135.47;5089970;28;19965;-75
2021/07/01 11:48:31;;;;;;;;;;;;;;;19.63;100.00;99115.19;5110410;27;19957;-75
2021/07/01 11:51:25;;;;;;;;;;;;;;;19.54;100.00;99100.31;5089384;28;19913;-75
2021/07/01 11:54:03;;;;;;;;;;;;;;;19.52;100.00;99111.34;5041022;27;1993957;-78
2021/07/01 11:56:53;;;;;;;;;;;;;;;19.54;100.00;99111.63;5089705;28;19966;-75
2021/07/01 11:59:33;;;;;;;;;;;;;;;19.57;100.00;99111.47;5089911;28;19916;-78
2021/07/01 12:02:12;;;;;;;;;;;;;;;19.49;100.00;99101.75;5090070;28;19913;-75
2021/07/01 12:04:52;;;;;;;;;;;;;;;19.63;100.00;99101.03;5113948;27;19985;-75
2021/07/01 12:07:34;;;;;;;;;;;;;;;19.90;100.00;99116.25;5110165;27;19920;-75
2021/07/01 12:10:19;;;;;;;;;;;;;;;19.87;100.00;99098.19;5110594;27;20432;-75
2021/07/01 12:12:57;;;;;;;;;;;;;;;20.21;100.00;99096.75;5110393;27;19912;-75
2021/07/01 12:15:57;;;;;;;;;;;;;;;20.27;100.00;99097.66;5110190;27;19920;-77
2021/07/01 12:18:48;;;;;;;;;;;;;;;20.10;100.00;99096.56;5111054;27;19912;-77
2021/07/01 12:21:28;;;;;;;;;;;;;;;20.20;100.00;99098.06;5110774;27;19912;-76
2021/07/01 12:24:17;;;;;;;;;;;;;;;20.41;100.00;99096.88;5076742;28;19921;-76
2021/07/01 12:26:56;;;;;;;;;;;;;;;20.45;100.00;99080.44;5109725;27;19912;-77
2021/07/01 12:29:46;;;;;;;;;;;;;;;20.30;100.00;99094.63;5084358;28;19959;-76
2021/07/01 12:32:24;;;;;;;;;;;;;;;20.19;100.00;99096.50;5070085;28;20407;-77
2021/07/01 12:35:23;;;;;;;;;;;;;;;20.34;100.00;99105.78;5081918;28;20327;-75
2021/07/01 12:38:08;;;;;;;;;;;;;;;20.46;100.00;99085.63;5051634;28;20357;-76
2021/07/01 12:40:55;;;;;;;;;;;;;;;20.33;100.00;99104.22;5076351;28;19912;-76
2021/07/01 12:43:43;;;;;;;;;;;;;;;20.22;100.00;99092.69;5082208;28;19913;-75
2021/07/01 12:46:41;;;;;;;;;;;;;;;20.29;100.00;99103.63;5093176;27;19939;-76
2021/07/01 12:49:25;;;;;;;;;;;;;;;20.39;100.00;99103.03;5076096;28;19916;-77
2021/07/01 12:52:10;;;;;;;;;;;;;;;20.23;100.00;99092.19;5131305;27;19916;-76
2021/07/01 12:54:51;;;;;;;;;;;;;;;20.50;100.00;99106.09;5073029;28;19939;-76
2021/07/01 12:57:30;;;;;;;;;;;;;;;20.41;100.00;99096.88;5079117;28;19967;-76
2021/07/01 13:00:09;;;;;;;;;;;;;;;20.31;100.00;99092.59;5110600;27;19912;-77
2021/07/01 13:02:56;;;;;;;;;;;;;;;20.55;100.00;99107.47;5077685;28;19959;-77
2021/07/01 13:05:36;;;;;;;;;;;;;;;20.62;100.00;99105.00;5102871;27;19912;-77
2021/07/01 13:08:41;;;;;;;;;;;;;;;20.53;100.00;99090.13;5111202;27;19916;-77
2021/07/01 13:11:20;;;;;;;;;;;;;;;20.71;100.00;99092.75;5077237;28;19912;-77
2021/07/01 13:13:59;;;;;;;;;;;;;;;20.89;100.00;99078.31;5107121;27;19912;-77
2021/07/01 13:16:39;;;;;;;;;;;;;;;20.97;100.00;99085.19;5111178;27;20371;-77
2021/07/01 13:19:18;;;;;;;;;;;;;;;21.13;100.00;99074.09;5110678;27;19966;-77
2021/07/01 13:21:58;;;;;;;;;;;;;;;21.29;100.00;99072.75;5110993;27;19938;-77
2021/07/01 13:24:49;;;;;;;;;;;;;;;20.87;100.00;99070.28;5090578;28;19916;-76
2021/07/01 13:27:31;;;;;;;;;;;;;;;20.73;100.00;99085.31;5090684;28;19967;-76
2021/07/01 13:30:13;;;;;;;;;;;;;;;20.61;100.00;99075.06;5111230;27;19966;-76
2021/07/01 13:32:56;;;;;;;;;;;;;;;20.60;100.00;99078.41;5090452;28;19939;-77
2021/07/01 13:35:35;;;;;;;;;;;;;;;20.55;100.00;99068.50;5090859;28;19913;-79
2021/07/01 13:38:17;;;;;;;;;;;;;;;20.67;100.00;99080.81;5090601;28;20322;-76
2021/07/01 13:40:58;;;;;;;;;;;;;;;20.80;100.00;99070.72;5090795;28;19917;-77
2021/07/01 13:43:38;;;;;;;;;;;;;;;20.88;100.00;99079.59;5090947;28;19916;-77
2021/07/01 13:46:20;;;;;;;;;;;;;;;20.97;100.00;99056.81;5090577;28;19939;-76
2021/07/01 13:48:59;;;;;;;;;;;;;;;21.07;100.00;99053.34;5110940;27;20325;-77
2021/07/01 13:51:38;;;;;;;;;;;;;;;21.21;100.00;99063.88;5110968;27;19915;-77
2021/07/01 13:54:17;;;;;;;;;;;;;;;21.34;100.00;99060.69;5111278;27;19912;-77
2021/07/01 13:57:01;;;;;;;;;;;;;;;21.55;100.00;99062.25;5111310;27;19957;-77
2021/07/01 13:59:59;;;;;;;;;;;;;;;21.51;100.00;99056.00;5110230;27;19961;-76
2021/07/01 14:02:39;;;;;;;;;;;;;;;21.32;100.00;99044.16;5090278;28;19912;-77
2021/07/01 14:05:28;;;;;;;;;;;;;;;21.52;100.00;99046.19;5084511;28;19921;-76
2021/07/01 14:08:08;;;;;;;;;;;;;;;21.61;100.00;99037.53;5110877;27;20318;-77
2021/07/01 14:10:59;;;;;;;;;;;;;;;21.24;100.00;99048.69;5091171;28;19962;-76
2021/07/01 14:13:41;;;;;;;;;;;;;;;21.39;100.00;99040.06;5059155;28;19923;-77
2021/07/01 14:16:21;;;;;;;;;;;;;;;21.47;100.00;99038.38;5090908;28;19917;-77
2021/07/01 14:19:00;;;;;;;;;;;;;;;21.43;100.00;99038.59;5110948;27;19912;-76
2021/07/01 14:21:49;;;;;;;;;;;;;;;21.42;100.00;99036.22;5110940;27;20383;-77